Terminal Aerodrome Forecast
Issued by NWS Rapid City, SD

Home | Current Version | Previous Version | Graphics & Text | Print | Product List | Glossary On
Versions: 1 2 3 4 5 6 7 8 9 10 11 12 13 14 15 16 17 18 19 20 21 22 23 24
000
FTUS43 KUNR 252205 AAC
TAFRAP
TAF AMD
KRAP 252205Z 2522/2618 01016KT 3SM -SN BR SCT007 BKN015 OVC050
      TEMPO 2522/2524 3/4SM -SN BR BKN008
     FM260000 35015KT 6SM -SHSN BR OVC015
     FM260300 34013KT P6SM OVC015
     FM261700 35009KT P6SM SCT025=

USA.gov is the U.S. government's official web portal to all federal, state and local government web resources and services.